Molokai, HI

9:17 AM HST on July 31, 2014 (GMT -1000)
Molokai (PHMK) Elev 449 ft | 21.15 °N, 157.10 °W | Change Station

Current weather conditions updated 23 minutes ago

Partly Cloudy
Partly Cloudy
80 °F
Feels Like 83 °F
N
14
Wind Variable Wind from NE
Gusts 21 mph

Today is forecast to be nearly the same temperature as yesterday.

Today
High -- | Low -- °F
--% Chance of Precip.
Yesterday
High -- | Low -- °F
Precip. -- in
6:01 AM 7:07 PM
Waxing Crescent, 20% visible
Pressure 30.03 in
Visibility 10.0 miles
Clouds Few 3000 ft
Heat Index 83 °F
Dew Point 70 °F
Humidity 71%
Rainfall 0.00 in
Snow Depth Not available.
UV 4 out of 12
Pollen Not available.
Air Quality Not available.
Flu Activity Not available.
METAR PHMK 311854Z 04012G18KT 10SM FEW030 27/21 A3002 RMK AO2 SLP168 T02670211 $

More Conditions Fewer Conditions

Pressure 30.03 in
Visibility 10.0 miles
Clouds Few 3000 ft
Heat Index 83 °F
Dew Point 70 °F
Humidity 71%
Rainfall 0.00 in
Snow Depth Not available.
UV 4 out of 12
Pollen Not available.
Air Quality Not available.
Flu Activity Not available.
METAR PHMK 311854Z 04012G18KT 10SM FEW030 27/21 A3002 RMK AO2 SLP168 T02670211 $

More Conditions Fewer Conditions

10-Day Weather Forecast

Almanac

Astronomy

Jul. 31, 2014 Rise Set
Actual Time 6:01 AM HST 7:07 PM HST
Civil Twilight 5:38 AM HST 7:31 PM HST
Nautical Twilight 5:09 AM HST 7:59 PM HST
Astronomical Twilight 4:41 AM HST 8:27 PM HST
Moon 9:59 AM HST 10:09 PM HST
Length of Visible Light 13h 53m
Length of Day
13h 05m
Tomorrow will be 0m 53s shorter.
Waxing Crescent, 20% of the Moon is Illuminated
Today
Waxing Crescent
Aug 3
First Quarter
Aug 10
Full
Aug 17
Last Quarter
Aug 25
New

Today's Extremes

State Highs State Lows

Community

WunderPhotos

Upload Photos

1,739,428 photos uploaded!

Nearby

Snow Depth

Station Depth Elevation
No new snow has been reported.

Earthquake Activity

City Distance Mag. Time & Date
No recent earthquake activity has been reported nearby.
Minimum magnitude displayed is 2.5.

Coastal Water Temperatures

Place Temperature
No Stations Reporting

Nearby Weather Stations

There are no personal weather stations in this area.